Terminal Aerodrome Forecast
Issued by NWS Charleston, WV

Current Version | Previous Version | Graphics & Text | Print | Product List | Glossary On
Versions: 1 2 3 4 5 6 7 8 9 10 11 12 13 14 15 16 17 18 19 20 21 22 23 24 25
000
FTUS41 KRLX 030227 AAA
TAFHTS
TAF AMD
KHTS 030227Z 0302/0324 00000KT 6SM HZ SCT080
     FM030700 00000KT 4SM BR SCT050
     FM030900 00000KT 2SM BR SCT002
     FM031300 00000KT 6SM HZ SCT035
     FM031700 33005KT P6SM VCTS BKN035CB
     FM032300 VRB03KT P6SM SCT045=

USA.gov is the U.S. government's official web portal to all federal, state and local government web resources and services.